KISP/ISP METAR and TAF weather

Enter ICAO airport designator
Station Type Date Time Source
KISP METAR 2019/10/22 16:56 UTC NOAA

KISP 221656Z 10009KT 1SM R06/4500V5500FT -RA BR OVC005 14/14 A3004 RMK AO2 SFC VIS 1 1/2 DZE10RAB10 SLP171 P0002 T01440144


Station Type Date Time Source
KISP Decoded METAR 2019/10/22 16:56 UTC NOAA

ISLIP LONG ISLAND MAC ART, NY, United States (KISP) 40-48N 073-06W 43M
Oct 22, 2019 - 12:56 PM EDT / 2019.10.22 1656 UTC
Wind: from the E (100 degrees) at 10 MPH (9 KT) (direction variable):0
Visibility: 1 mile(s):0
Sky conditions: overcast
Weather: light rain; mist
Precipitation last hour: 0.02 inches
Temperature: 57.9 F (14.4 C)
Dew Point: 57.9 F (14.4 C)
Relative Humidity: 100%
Pressure (altimeter): 30.04 in. Hg (1017 hPa)
ob: KISP 221656Z 10009KT 1SM R06/4500V5500FT -RA BR OVC005 14/14 A3004 RMK AO2 SFC VIS 1 1/2 DZE10RAB10 SLP171 P0002 T01440144
cycle: 17

Station Type Date Time Source
KISP TAF 2019/10/22 16:24 UTC NOAA

TAF
AMD KISP 221620Z 2216/2312 08009KT 2SM -DZ OVC009
TEMPO 2219/2223 2SM -RA BR OVC007
FM222300 10010KT 5SM -RA BR OVC008
FM230400 13010KT 3SM -RA BR BKN005 OVC008
FM230800 34008KT 3SM -RA BR BKN005 OVC008
FM231100 30010KT 4SM BR BKN025 OVC035

Example: see airport list